sensor_id;sensor_type;location;lat;lon;timestamp;pressure;altitude;pressure_sealevel;temperature;humidity
22181;BME280;11256;50.830;12.834;2023-02-04T00:01:00;98078.53;;;5.14;81.30
22181;BME280;11256;50.830;12.834;2023-02-04T00:06:00;98086.38;;;5.16;81.76
22181;BME280;11256;50.830;12.834;2023-02-04T00:11:00;98095.47;;;5.15;81.86
22181;BME280;11256;50.830;12.834;2023-02-04T00:16:01;98094.31;;;5.11;81.87
22181;BME280;11256;50.830;12.834;2023-02-04T00:21:01;98102.63;;;5.09;81.95
22181;BME280;11256;50.830;12.834;2023-02-04T00:26:02;98120.72;;;5.14;82.69
22181;BME280;11256;50.830;12.834;2023-02-04T00:31:02;98101.78;;;5.09;81.86
22181;BME280;11256;50.830;12.834;2023-02-04T00:36:03;98127.47;;;5.05;82.84
22181;BME280;11256;50.830;12.834;2023-02-04T00:41:03;98224.25;;;4.87;84.33
22181;BME280;11256;50.830;12.834;2023-02-04T00:46:05;98235.31;;;4.79;83.59
22181;BME280;11256;50.830;12.834;2023-02-04T00:51:05;98254.44;;;4.71;82.59
22181;BME280;11256;50.830;12.834;2023-02-04T00:56:06;98275.56;;;4.67;82.11
22181;BME280;11256;50.830;12.834;2023-02-04T01:01:06;98282.34;;;4.70;81.54
22181;BME280;11256;50.830;12.834;2023-02-04T01:06:07;98298.09;;;4.66;81.14
22181;BME280;11256;50.830;12.834;2023-02-04T01:11:08;98316.94;;;4.60;81.05
22181;BME280;11256;50.830;12.834;2023-02-04T01:16:08;98303.84;;;4.52;81.07
22181;BME280;11256;50.830;12.834;2023-02-04T01:21:08;98321.34;;;4.54;80.80
22181;BME280;11256;50.830;12.834;2023-02-04T01:26:09;98340.28;;;4.59;80.35
22181;BME280;11256;50.830;12.834;2023-02-04T01:31:09;98347.97;;;4.56;80.09
22181;BME280;11256;50.830;12.834;2023-02-04T01:36:10;98374.00;;;4.55;79.86
22181;BME280;11256;50.830;12.834;2023-02-04T01:41:10;98394.78;;;4.42;80.05
22181;BME280;11256;50.830;12.834;2023-02-04T01:46:11;98409.84;;;4.43;80.20
22181;BME280;11256;50.830;12.834;2023-02-04T01:51:14;98422.06;;;4.39;79.81
22181;BME280;11256;50.830;12.834;2023-02-04T01:56:18;98423.63;;;4.28;80.09
22181;BME280;11256;50.830;12.834;2023-02-04T02:01:40;98457.81;;;4.33;79.80
22181;BME280;11256;50.830;12.834;2023-02-04T02:06:51;98475.53;;;4.16;80.17
22181;BME280;11256;50.830;12.834;2023-02-04T02:11:52;98480.44;;;4.19;80.20
22181;BME280;11256;50.830;12.834;2023-02-04T02:16:53;98499.28;;;4.12;79.96
22181;BME280;11256;50.830;12.834;2023-02-04T02:22:12;98496.22;;;4.09;79.94
22181;BME280;11256;50.830;12.834;2023-02-04T02:27:14;98523.97;;;3.96;80.10
22181;BME280;11256;50.830;12.834;2023-02-04T02:32:14;98530.91;;;4.04;80.45
22181;BME280;11256;50.830;12.834;2023-02-04T02:37:15;98546.63;;;4.00;80.20
22181;BME280;11256;50.830;12.834;2023-02-04T02:42:16;98549.06;;;4.02;79.97
22181;BME280;11256;50.830;12.834;2023-02-04T02:47:20;98561.28;;;3.98;79.72
22181;BME280;11256;50.830;12.834;2023-02-04T02:52:21;98568.53;;;3.91;79.88
22181;BME280;11256;50.830;12.834;2023-02-04T02:57:22;98573.88;;;3.91;79.74
22181;BME280;11256;50.830;12.834;2023-02-04T03:02:23;98582.00;;;3.84;79.87
22181;BME280;11256;50.830;12.834;2023-02-04T03:07:24;98604.41;;;3.90;79.52
22181;BME280;11256;50.830;12.834;2023-02-04T03:12:25;98601.59;;;3.78;79.48
22181;BME280;11256;50.830;12.834;2023-02-04T03:17:26;98627.38;;;3.79;79.50
22181;BME280;11256;50.830;12.834;2023-02-04T03:22:28;98642.44;;;3.74;79.39
22181;BME280;11256;50.830;12.834;2023-02-04T03:27:28;98656.88;;;3.73;79.32
22181;BME280;11256;50.830;12.834;2023-02-04T03:32:29;98674.84;;;3.66;79.41
22181;BME280;11256;50.830;12.834;2023-02-04T03:37:30;98681.66;;;3.62;79.25
22181;BME280;11256;50.830;12.834;2023-02-04T03:42:30;98704.34;;;3.66;79.22
22181;BME280;11256;50.830;12.834;2023-02-04T03:47:30;98697.34;;;3.52;79.50
22181;BME280;11256;50.830;12.834;2023-02-04T03:52:31;98712.19;;;3.54;78.96
22181;BME280;11256;50.830;12.834;2023-02-04T03:57:31;98719.63;;;3.46;79.17
22181;BME280;11256;50.830;12.834;2023-02-04T04:02:31;98738.59;;;3.51;78.93
22181;BME280;11256;50.830;12.834;2023-02-04T04:07:32;98749.31;;;3.44;78.94
22181;BME280;11256;50.830;12.834;2023-02-04T04:12:32;98767.00;;;3.45;78.92
22181;BME280;11256;50.830;12.834;2023-02-04T04:17:33;98787.66;;;3.45;79.15
22181;BME280;11256;50.830;12.834;2023-02-04T04:22:33;98795.88;;;3.37;79.07
22181;BME280;11256;50.830;12.834;2023-02-04T04:27:33;98820.63;;;3.39;79.63
22181;BME280;11256;50.830;12.834;2023-02-04T04:32:34;98841.22;;;3.38;79.32
22181;BME280;11256;50.830;12.834;2023-02-04T04:37:34;98849.88;;;3.27;79.47
22181;BME280;11256;50.830;12.834;2023-02-04T04:42:35;98853.56;;;3.26;79.57
22181;BME280;11256;50.830;12.834;2023-02-04T04:47:35;98866.78;;;3.28;78.98
22181;BME280;11256;50.830;12.834;2023-02-04T04:52:35;98878.31;;;3.22;79.31
22181;BME280;11256;50.830;12.834;2023-02-04T04:57:36;98888.38;;;3.20;79.61
22181;BME280;11256;50.830;12.834;2023-02-04T05:02:36;98897.22;;;3.14;79.80
22181;BME280;11256;50.830;12.834;2023-02-04T05:07:37;98901.75;;;3.07;79.78
22181;BME280;11256;50.830;12.834;2023-02-04T05:12:37;98910.00;;;3.12;79.78
22181;BME280;11256;50.830;12.834;2023-02-04T05:17:37;98918.22;;;3.04;79.61
22181;BME280;11256;50.830;12.834;2023-02-04T05:22:38;98920.28;;;3.02;79.95
22181;BME280;11256;50.830;12.834;2023-02-04T05:27:38;98947.25;;;3.07;79.62
22181;BME280;11256;50.830;12.834;2023-02-04T05:32:39;98948.31;;;3.06;79.83
22181;BME280;11256;50.830;12.834;2023-02-04T05:37:39;98954.47;;;3.00;79.92
22181;BME280;11256;50.830;12.834;2023-02-04T05:42:39;98956.91;;;2.95;79.53
22181;BME280;11256;50.830;12.834;2023-02-04T05:47:41;98972.16;;;3.01;79.58
22181;BME280;11256;50.830;12.834;2023-02-04T05:52:41;98970.31;;;2.95;79.62
22181;BME280;11256;50.830;12.834;2023-02-04T05:57:42;98996.88;;;3.03;79.94
22181;BME280;11256;50.830;12.834;2023-02-04T06:02:42;99001.63;;;3.01;79.56
22181;BME280;11256;50.830;12.834;2023-02-04T06:07:43;99025.72;;;3.01;79.70
22181;BME280;11256;50.830;12.834;2023-02-04T06:12:43;99044.22;;;2.96;79.42
22181;BME280;11256;50.830;12.834;2023-02-04T06:17:43;99052.03;;;2.91;79.31
22181;BME280;11256;50.830;12.834;2023-02-04T06:22:44;99061.88;;;2.90;79.91
22181;BME280;11256;50.830;12.834;2023-02-04T06:27:44;99073.44;;;2.91;79.31
22181;BME280;11256;50.830;12.834;2023-02-04T06:32:44;99085.78;;;2.92;79.47
22181;BME280;11256;50.830;12.834;2023-02-04T06:37:45;99097.66;;;2.83;79.17
22181;BME280;11256;50.830;12.834;2023-02-04T06:42:45;99108.38;;;2.83;79.13
22181;BME280;11256;50.830;12.834;2023-02-04T06:47:45;99119.06;;;2.83;79.66
22181;BME280;11256;50.830;12.834;2023-02-04T06:52:46;99114.06;;;2.73;79.63
22181;BME280;11256;50.830;12.834;2023-02-04T06:57:47;99120.22;;;2.67;79.17
22181;BME280;11256;50.830;12.834;2023-02-04T07:02:47;99139.63;;;2.76;79.20
22181;BME280;11256;50.830;12.834;2023-02-04T07:07:47;99120.41;;;2.66;79.55
22181;BME280;11256;50.830;12.834;2023-02-04T07:12:48;99127.44;;;2.67;79.51
22181;BME280;11256;50.830;12.834;2023-02-04T07:17:48;99143.31;;;2.75;78.99
22181;BME280;11256;50.830;12.834;2023-02-04T07:22:49;99133.75;;;2.59;79.57
22181;BME280;11256;50.830;12.834;2023-02-04T07:27:50;99133.75;;;2.59;79.77
22181;BME280;11256;50.830;12.834;2023-02-04T07:32:50;99133.53;;;2.61;79.85
22181;BME280;11256;50.830;12.834;2023-02-04T07:37:50;99148.19;;;2.65;79.62
22181;BME280;11256;50.830;12.834;2023-02-04T07:42:51;99147.75;;;2.61;80.02
22181;BME280;11256;50.830;12.834;2023-02-04T07:47:55;99174.94;;;2.65;79.44
22181;BME280;11256;50.830;12.834;2023-02-04T07:52:55;99195.97;;;2.68;79.63
22181;BME280;11256;50.830;12.834;2023-02-04T07:57:55;99208.69;;;2.66;79.76
22181;BME280;11256;50.830;12.834;2023-02-04T08:02:56;99204.56;;;2.63;80.13
22181;BME280;11256;50.830;12.834;2023-02-04T08:07:56;99236.34;;;2.73;79.93
22181;BME280;11256;50.830;12.834;2023-02-04T08:12:57;99239.22;;;2.71;79.97
22181;BME280;11256;50.830;12.834;2023-02-04T08:17:58;99263.59;;;2.83;80.03
22181;BME280;11256;50.830;12.834;2023-02-04T08:22:58;99262.84;;;2.89;79.89
22181;BME280;11256;50.830;12.834;2023-02-04T08:27:58;99266.06;;;2.78;80.13
22181;BME280;11256;50.830;12.834;2023-02-04T08:32:59;99270.66;;;2.90;79.93
22181;BME280;11256;50.830;12.834;2023-02-04T08:37:59;99281.81;;;2.94;80.47
22181;BME280;11256;50.830;12.834;2023-02-04T08:42:59;99286.03;;;3.03;80.74
22181;BME280;11256;50.830;12.834;2023-02-04T08:48:00;99299.28;;;3.11;80.25
22181;BME280;11256;50.830;12.834;2023-02-04T08:53:00;99313.75;;;3.16;80.13
22181;BME280;11256;50.830;12.834;2023-02-04T08:58:00;99316.56;;;3.08;79.96
22181;BME280;11256;50.830;12.834;2023-02-04T09:03:02;99307.84;;;3.00;79.44
22181;BME280;11256;50.830;12.834;2023-02-04T09:08:02;99338.53;;;3.04;79.82
22181;BME280;11256;50.830;12.834;2023-02-04T09:13:03;99343.78;;;3.12;79.55
22181;BME280;11256;50.830;12.834;2023-02-04T09:18:03;99358.56;;;3.08;79.53
22181;BME280;11256;50.830;12.834;2023-02-04T09:23:13;99359.19;;;3.10;79.96
22181;BME280;11256;50.830;12.834;2023-02-04T09:28:14;99360.88;;;3.11;80.64
22181;BME280;11256;50.830;12.834;2023-02-04T09:33:16;99373.75;;;3.22;80.40
22181;BME280;11256;50.830;12.834;2023-02-04T09:38:16;99379.38;;;3.27;80.35
22181;BME280;11256;50.830;12.834;2023-02-04T09:43:21;99384.25;;;3.23;80.50
22181;BME280;11256;50.830;12.834;2023-02-04T09:48:22;99395.22;;;3.28;80.16
22181;BME280;11256;50.830;12.834;2023-02-04T09:53:23;99403.31;;;3.35;80.27
22181;BME280;11256;50.830;12.834;2023-02-04T09:58:25;99396.31;;;3.34;80.17
22181;BME280;11256;50.830;12.834;2023-02-04T10:03:28;99406.63;;;3.58;82.22
22181;BME280;11256;50.830;12.834;2023-02-04T10:08:32;99408.81;;;4.03;83.60
22181;BME280;11256;50.830;12.834;2023-02-04T10:13:35;99417.28;;;4.40;83.45
22181;BME280;11256;50.830;12.834;2023-02-04T10:18:36;99406.22;;;4.56;82.26
22181;BME280;11256;50.830;12.834;2023-02-04T10:23:37;99421.81;;;4.74;81.76
22181;BME280;11256;50.830;12.834;2023-02-04T10:28:38;99425.34;;;4.81;80.51
22181;BME280;11256;50.830;12.834;2023-02-04T10:33:43;99426.19;;;4.88;80.74
22181;BME280;11256;50.830;12.834;2023-02-04T10:38:44;99421.22;;;4.85;78.78
22181;BME280;11256;50.830;12.834;2023-02-04T10:43:44;99410.88;;;4.82;80.24
22181;BME280;11256;50.830;12.834;2023-02-04T10:48:44;99418.53;;;4.85;78.16
22181;BME280;11256;50.830;12.834;2023-02-04T10:53:45;99424.59;;;5.13;85.18
22181;BME280;11256;50.830;12.834;2023-02-04T10:59:04;99434.19;;;5.48;85.48
22181;BME280;11256;50.830;12.834;2023-02-04T11:04:09;99436.25;;;5.46;82.43
22181;BME280;11256;50.830;12.834;2023-02-04T11:09:12;99446.59;;;5.42;81.07
22181;BME280;11256;50.830;12.834;2023-02-04T11:14:24;99435.59;;;5.44;80.42
22181;BME280;11256;50.830;12.834;2023-02-04T11:19:36;99445.34;;;5.45;82.06
22181;BME280;11256;50.830;12.834;2023-02-04T11:24:36;99445.75;;;5.55;80.59
22181;BME280;11256;50.830;12.834;2023-02-04T11:29:37;99456.97;;;5.58;81.64
22181;BME280;11256;50.830;12.834;2023-02-04T11:34:48;99456.94;;;5.65;80.29
22181;BME280;11256;50.830;12.834;2023-02-04T11:39:52;99462.31;;;5.65;79.62
22181;BME280;11256;50.830;12.834;2023-02-04T11:45:19;99456.34;;;5.63;80.67
22181;BME280;11256;50.830;12.834;2023-02-04T11:50:24;99467.97;;;5.83;80.36
22181;BME280;11256;50.830;12.834;2023-02-04T11:55:24;99459.88;;;5.89;79.67
22181;BME280;11256;50.830;12.834;2023-02-04T12:00:28;99473.75;;;5.99;78.72
22181;BME280;11256;50.830;12.834;2023-02-04T12:05:39;99471.47;;;6.03;78.36
22181;BME280;11256;50.830;12.834;2023-02-04T12:10:47;99458.22;;;6.01;77.44
22181;BME280;11256;50.830;12.834;2023-02-04T12:15:56;99473.56;;;6.01;77.50
22181;BME280;11256;50.830;12.834;2023-02-04T12:20:57;99467.97;;;6.02;77.57
22181;BME280;11256;50.830;12.834;2023-02-04T12:25:58;99473.56;;;6.01;76.74
22181;BME280;11256;50.830;12.834;2023-02-04T12:30:59;99471.47;;;6.03;77.20
22181;BME280;11256;50.830;12.834;2023-02-04T12:35:59;99480.19;;;6.05;77.40
22181;BME280;11256;50.830;12.834;2023-02-04T12:40:59;99481.44;;;6.02;78.29
22181;BME280;11256;50.830;12.834;2023-02-04T12:46:00;99480.59;;;6.08;79.69
22181;BME280;11256;50.830;12.834;2023-02-04T12:51:00;99472.94;;;6.18;80.04
22181;BME280;11256;50.830;12.834;2023-02-04T12:56:00;99485.13;;;6.34;79.46
22181;BME280;11256;50.830;12.834;2023-02-04T13:01:01;99475.16;;;6.41;78.71
22181;BME280;11256;50.830;12.834;2023-02-04T13:06:01;99483.03;;;6.36;79.11
22181;BME280;11256;50.830;12.834;2023-02-04T13:11:02;99473.09;;;6.43;78.12
22181;BME280;11256;50.830;12.834;2023-02-04T13:16:02;99478.91;;;6.46;77.36
22181;BME280;11256;50.830;12.834;2023-02-04T13:21:03;99486.53;;;6.56;76.75
22181;BME280;11256;50.830;12.834;2023-02-04T13:26:03;99482.63;;;6.45;75.46
22181;BME280;11256;50.830;12.834;2023-02-04T13:31:04;99492.97;;;6.42;76.67
22181;BME280;11256;50.830;12.834;2023-02-04T13:36:04;99497.34;;;6.43;75.83
22181;BME280;11256;50.830;12.834;2023-02-04T13:41:05;99502.94;;;6.35;76.91
22181;BME280;11256;50.830;12.834;2023-02-04T13:46:05;99496.53;;;6.29;77.97
22181;BME280;11256;50.830;12.834;2023-02-04T13:51:05;99507.47;;;6.41;77.14
22181;BME280;11256;50.830;12.834;2023-02-04T13:56:06;99512.66;;;6.49;75.47
22181;BME280;11256;50.830;12.834;2023-02-04T14:01:06;99509.97;;;6.49;75.21
22181;BME280;11256;50.830;12.834;2023-02-04T14:06:09;99504.38;;;6.31;74.54
22181;BME280;11256;50.830;12.834;2023-02-04T14:11:10;99513.09;;;6.33;74.37
22181;BME280;11256;50.830;12.834;2023-02-04T14:16:10;99508.34;;;6.22;75.11
22181;BME280;11256;50.830;12.834;2023-02-04T14:21:11;99515.78;;;6.26;74.74
22181;BME280;11256;50.830;12.834;2023-02-04T14:26:11;99506.25;;;6.24;75.36
22181;BME280;11256;50.830;12.834;2023-02-04T14:31:11;99507.69;;;6.39;75.30
22181;BME280;11256;50.830;12.834;2023-02-04T14:36:12;99514.72;;;6.47;74.57
22181;BME280;11256;50.830;12.834;2023-02-04T14:41:12;99517.00;;;6.56;74.51
22181;BME280;11256;50.830;12.834;2023-02-04T14:46:15;99518.00;;;6.62;74.45
22181;BME280;11256;50.830;12.834;2023-02-04T14:51:15;99510.94;;;6.74;74.28
22181;BME280;11256;50.830;12.834;2023-02-04T14:56:16;99518.81;;;6.69;73.89
22181;BME280;11256;50.830;12.834;2023-02-04T15:01:16;99513.25;;;6.57;73.55
22181;BME280;11256;50.830;12.834;2023-02-04T15:06:18;99526.50;;;6.59;73.39
22181;BME280;11256;50.830;12.834;2023-02-04T15:11:19;99521.53;;;6.56;73.73
22181;BME280;11256;50.830;12.834;2023-02-04T15:16:19;99516.56;;;6.53;73.43
22181;BME280;11256;50.830;12.834;2023-02-04T15:21:19;99520.75;;;6.49;74.06
22181;BME280;11256;50.830;12.834;2023-02-04T15:26:20;99519.06;;;6.48;74.00
22181;BME280;11256;50.830;12.834;2023-02-04T15:31:22;99521.97;;;6.46;73.77
22181;BME280;11256;50.830;12.834;2023-02-04T15:36:22;99517.84;;;6.37;74.22
22181;BME280;11256;50.830;12.834;2023-02-04T15:41:23;99522.81;;;6.34;74.32
22181;BME280;11256;50.830;12.834;2023-02-04T15:46:23;99525.31;;;6.29;74.06
22181;BME280;11256;50.830;12.834;2023-02-04T15:51:23;99539.78;;;6.15;73.97
22181;BME280;11256;50.830;12.834;2023-02-04T15:56:24;99547.66;;;6.10;73.96
22181;BME280;11256;50.830;12.834;2023-02-04T16:01:24;99542.06;;;5.98;74.16
22181;BME280;11256;50.830;12.834;2023-02-04T16:06:24;99555.94;;;5.89;73.94
22181;BME280;11256;50.830;12.834;2023-02-04T16:11:25;99557.91;;;5.74;74.20
22181;BME280;11256;50.830;12.834;2023-02-04T16:16:25;99559.94;;;5.59;73.89
22181;BME280;11256;50.830;12.834;2023-02-04T16:21:25;99557.84;;;5.48;73.54
22181;BME280;11256;50.830;12.834;2023-02-04T16:26:26;99563.00;;;5.43;73.97
22181;BME280;11256;50.830;12.834;2023-02-04T16:31:26;99572.28;;;5.34;74.08
22181;BME280;11256;50.830;12.834;2023-02-04T16:36:26;99566.41;;;5.17;74.13
22181;BME280;11256;50.830;12.834;2023-02-04T16:41:27;99579.22;;;5.15;74.42
22181;BME280;11256;50.830;12.834;2023-02-04T16:46:28;99574.84;;;5.08;74.28
22181;BME280;11256;50.830;12.834;2023-02-04T16:51:30;99576.63;;;5.01;74.11
22181;BME280;11256;50.830;12.834;2023-02-04T16:56:31;99575.59;;;4.95;73.83
22181;BME280;11256;50.830;12.834;2023-02-04T17:01:34;99592.31;;;4.91;74.15
22181;BME280;11256;50.830;12.834;2023-02-04T17:06:35;99586.84;;;4.78;74.02
22181;BME280;11256;50.830;12.834;2023-02-04T17:11:36;99592.22;;;4.78;74.13
22181;BME280;11256;50.830;12.834;2023-02-04T17:16:36;99599.44;;;4.77;73.80
22181;BME280;11256;50.830;12.834;2023-02-04T17:21:37;99600.44;;;4.70;73.49
22181;BME280;11256;50.830;12.834;2023-02-04T17:26:39;99598.28;;;4.59;73.37
22181;BME280;11256;50.830;12.834;2023-02-04T17:31:39;99606.09;;;4.54;73.56
22181;BME280;11256;50.830;12.834;2023-02-04T17:36:42;99611.31;;;4.41;73.36
22181;BME280;11256;50.830;12.834;2023-02-04T17:41:42;99610.00;;;4.30;73.53
22181;BME280;11256;50.830;12.834;2023-02-04T17:46:42;99595.47;;;4.18;73.35
22181;BME280;11256;50.830;12.834;2023-02-04T17:51:43;99603.69;;;4.17;73.62
22181;BME280;11256;50.830;12.834;2023-02-04T17:56:43;99604.66;;;4.09;73.72
22181;BME280;11256;50.830;12.834;2023-02-04T18:01:44;99605.25;;;4.05;74.13
22181;BME280;11256;50.830;12.834;2023-02-04T18:06:44;99596.06;;;3.93;73.74
22181;BME280;11256;50.830;12.834;2023-02-04T18:11:46;99606.38;;;3.96;73.80
22181;BME280;11256;50.830;12.834;2023-02-04T18:16:46;99608.03;;;3.97;73.49
22181;BME280;11256;50.830;12.834;2023-02-04T18:21:48;99589.16;;;3.84;73.80
22181;BME280;11256;50.830;12.834;2023-02-04T18:26:53;99598.41;;;3.81;73.26
22181;BME280;11256;50.830;12.834;2023-02-04T18:31:59;99597.56;;;3.81;73.41
22181;BME280;11256;50.830;12.834;2023-02-04T18:37:25;99600.63;;;3.78;73.33
22181;BME280;11256;50.830;12.834;2023-02-04T18:42:26;99584.41;;;3.65;73.45
22181;BME280;11256;50.830;12.834;2023-02-04T18:47:28;99592.81;;;3.62;74.17
22181;BME280;11256;50.830;12.834;2023-02-04T18:52:35;99590.72;;;3.57;73.45
22181;BME280;11256;50.830;12.834;2023-02-04T18:57:37;99600.34;;;3.52;73.84
22181;BME280;11256;50.830;12.834;2023-02-04T19:02:53;99599.59;;;3.43;73.71
22181;BME280;11256;50.830;12.834;2023-02-04T19:13:24;99601.88;;;3.25;74.26
22181;BME280;11256;50.830;12.834;2023-02-04T19:18:34;99607.25;;;3.11;74.76
22181;BME280;11256;50.830;12.834;2023-02-04T19:23:36;99600.50;;;3.00;74.81
22181;BME280;11256;50.830;12.834;2023-02-04T19:28:37;99616.28;;;2.95;74.99
22181;BME280;11256;50.830;12.834;2023-02-04T19:33:40;99603.81;;;2.88;74.61
22181;BME280;11256;50.830;12.834;2023-02-04T19:38:42;99613.78;;;2.94;74.42
22181;BME280;11256;50.830;12.834;2023-02-04T19:43:44;99617.28;;;2.80;75.17
22181;BME280;11256;50.830;12.834;2023-02-04T19:48:45;99641.09;;;2.75;75.56
22181;BME280;11256;50.830;12.834;2023-02-04T19:53:50;99627.53;;;2.62;75.89
22181;BME280;11256;50.830;12.834;2023-02-04T19:58:51;99638.88;;;2.64;75.95
22181;BME280;11256;50.830;12.834;2023-02-04T20:03:52;99638.28;;;2.54;75.83
22181;BME280;11256;50.830;12.834;2023-02-04T20:09:19;99643.53;;;2.47;76.15
22181;BME280;11256;50.830;12.834;2023-02-04T20:14:28;99638.13;;;2.33;76.72
22181;BME280;11256;50.830;12.834;2023-02-04T20:19:36;99651.88;;;2.30;76.94
22181;BME280;11256;50.830;12.834;2023-02-04T20:24:40;99664.41;;;2.29;76.97
22181;BME280;11256;50.830;12.834;2023-02-04T20:29:41;99660.94;;;2.29;77.04
22181;BME280;11256;50.830;12.834;2023-02-04T20:34:41;99680.63;;;2.28;76.86
22181;BME280;11256;50.830;12.834;2023-02-04T20:39:41;99670.31;;;2.25;76.69
22181;BME280;11256;50.830;12.834;2023-02-04T20:44:42;99680.22;;;2.39;76.97
22181;BME280;11256;50.830;12.834;2023-02-04T20:49:45;99677.78;;;2.29;76.96
22181;BME280;11256;50.830;12.834;2023-02-04T20:54:51;99689.81;;;2.33;76.85
22181;BME280;11256;50.830;12.834;2023-02-04T20:59:53;99683.97;;;2.30;76.62
22181;BME280;11256;50.830;12.834;2023-02-04T21:04:53;99694.69;;;2.30;76.83
22181;BME280;11256;50.830;12.834;2023-02-04T21:09:54;99686.34;;;2.25;77.16
22181;BME280;11256;50.830;12.834;2023-02-04T21:14:55;99697.53;;;2.28;76.77
22181;BME280;11256;50.830;12.834;2023-02-04T21:19:55;99681.53;;;2.20;77.00
22181;BME280;11256;50.830;12.834;2023-02-04T21:24:56;99699.91;;;2.23;76.47
22181;BME280;11256;50.830;12.834;2023-02-04T21:29:57;99699.44;;;2.20;76.94
22181;BME280;11256;50.830;12.834;2023-02-04T21:34:57;99702.66;;;2.15;76.97
22181;BME280;11256;50.830;12.834;2023-02-04T21:39:57;99693.94;;;2.13;76.95
22181;BME280;11256;50.830;12.834;2023-02-04T21:44:58;99711.19;;;2.11;77.29
22181;BME280;11256;50.830;12.834;2023-02-04T21:50:00;99696.31;;;2.08;77.19
22181;BME280;11256;50.830;12.834;2023-02-04T21:55:00;99701.19;;;2.05;77.04
22181;BME280;11256;50.830;12.834;2023-02-04T22:00:01;99687.91;;;1.97;77.34
22181;BME280;11256;50.830;12.834;2023-02-04T22:05:01;99692.88;;;2.00;76.80
22181;BME280;11256;50.830;12.834;2023-02-04T22:10:09;99693.94;;;1.91;77.08
22181;BME280;11256;50.830;12.834;2023-02-04T22:15:11;99705.28;;;1.93;77.05
22181;BME280;11256;50.830;12.834;2023-02-04T22:20:11;99686.59;;;1.85;77.17
22181;BME280;11256;50.830;12.834;2023-02-04T22:25:16;99688.47;;;1.84;76.50
22181;BME280;11256;50.830;12.834;2023-02-04T22:30:17;99710.66;;;1.85;76.72
22181;BME280;11256;50.830;12.834;2023-02-04T22:35:18;99703.00;;;1.82;76.78
22181;BME280;11256;50.830;12.834;2023-02-04T22:40:19;99705.06;;;1.72;77.37
22181;BME280;11256;50.830;12.834;2023-02-04T22:45:19;99698.38;;;1.68;77.54
22181;BME280;11256;50.830;12.834;2023-02-04T22:50:19;99691.38;;;1.67;77.02
22181;BME280;11256;50.830;12.834;2023-02-04T22:55:20;99695.72;;;1.68;77.46
22181;BME280;11256;50.830;12.834;2023-02-04T23:00:20;99692.56;;;1.64;77.07
22181;BME280;11256;50.830;12.834;2023-02-04T23:05:20;99702.78;;;1.61;77.45
22181;BME280;11256;50.830;12.834;2023-02-04T23:10:21;99712.13;;;1.57;77.69
22181;BME280;11256;50.830;12.834;2023-02-04T23:15:21;99705.50;;;1.53;77.30
22181;BME280;11256;50.830;12.834;2023-02-04T23:20:22;99690.50;;;1.44;77.78
22181;BME280;11256;50.830;12.834;2023-02-04T23:25:22;99700.53;;;1.42;77.66
22181;BME280;11256;50.830;12.834;2023-02-04T23:30:23;99715.19;;;1.46;77.32
22181;BME280;11256;50.830;12.834;2023-02-04T23:35:23;99722.53;;;1.44;77.74
22181;BME280;11256;50.830;12.834;2023-02-04T23:40:24;99708.03;;;1.38;77.99
22181;BME280;11256;50.830;12.834;2023-02-04T23:45:24;99710.38;;;1.41;77.60
22181;BME280;11256;50.830;12.834;2023-02-04T23:50:24;99697.34;;;1.38;77.29
22181;BME280;11256;50.830;12.834;2023-02-04T23:55:25;99686.03;;;1.36;77.18
